sensor_id;sensor_type;location;lat;lon;timestamp;P1;durP1;ratioP1;P2;durP2;ratioP2
20695;SDS011;10507;52.754;13.040;2022-12-24T00:01:32;15.63;;;7.30;;
20695;SDS011;10507;52.754;13.040;2022-12-24T00:04:00;11.73;;;6.83;;
20695;SDS011;10507;52.754;13.040;2022-12-24T00:06:28;13.77;;;6.73;;
20695;SDS011;10507;52.754;13.040;2022-12-24T00:08:56;12.37;;;6.73;;
20695;SDS011;10507;52.754;13.040;2022-12-24T00:11:26;11.63;;;7.70;;
20695;SDS011;10507;52.754;13.040;2022-12-24T00:13:54;11.63;;;7.47;;
20695;SDS011;10507;52.754;13.040;2022-12-24T00:16:22;13.23;;;8.50;;
20695;SDS011;10507;52.754;13.040;2022-12-24T00:18:50;13.13;;;6.93;;
20695;SDS011;10507;52.754;13.040;2022-12-24T00:21:19;14.73;;;7.77;;
20695;SDS011;10507;52.754;13.040;2022-12-24T00:23:47;14.57;;;7.83;;
20695;SDS011;10507;52.754;13.040;2022-12-24T00:26:15;13.60;;;7.90;;
20695;SDS011;10507;52.754;13.040;2022-12-24T00:28:44;14.07;;;7.70;;
20695;SDS011;10507;52.754;13.040;2022-12-24T00:31:13;14.47;;;7.77;;
20695;SDS011;10507;52.754;13.040;2022-12-24T00:33:44;14.50;;;7.80;;
20695;SDS011;10507;52.754;13.040;2022-12-24T00:36:13;12.20;;;7.17;;
20695;SDS011;10507;52.754;13.040;2022-12-24T00:38:41;14.13;;;7.47;;
20695;SDS011;10507;52.754;13.040;2022-12-24T00:41:10;12.93;;;7.40;;
20695;SDS011;10507;52.754;13.040;2022-12-24T00:43:53;14.87;;;7.83;;
20695;SDS011;10507;52.754;13.040;2022-12-24T00:46:22;12.83;;;7.80;;
20695;SDS011;10507;52.754;13.040;2022-12-24T00:48:52;11.73;;;7.27;;
20695;SDS011;10507;52.754;13.040;2022-12-24T00:51:20;13.07;;;7.17;;
20695;SDS011;10507;52.754;13.040;2022-12-24T00:53:49;12.93;;;7.33;;
20695;SDS011;10507;52.754;13.040;2022-12-24T00:56:18;14.83;;;7.77;;
20695;SDS011;10507;52.754;13.040;2022-12-24T00:58:46;11.47;;;6.87;;
20695;SDS011;10507;52.754;13.040;2022-12-24T01:01:17;11.90;;;7.13;;
20695;SDS011;10507;52.754;13.040;2022-12-24T01:03:46;14.67;;;7.10;;
20695;SDS011;10507;52.754;13.040;2022-12-24T01:06:16;14.83;;;7.83;;
20695;SDS011;10507;52.754;13.040;2022-12-24T01:08:44;13.43;;;6.93;;
20695;SDS011;10507;52.754;13.040;2022-12-24T01:11:13;15.17;;;8.17;;
20695;SDS011;10507;52.754;13.040;2022-12-24T01:13:41;15.37;;;7.63;;
20695;SDS011;10507;52.754;13.040;2022-12-24T01:16:13;14.73;;;7.77;;
20695;SDS011;10507;52.754;13.040;2022-12-24T01:18:45;12.97;;;7.77;;
20695;SDS011;10507;52.754;13.040;2022-12-24T01:21:13;15.60;;;7.80;;
20695;SDS011;10507;52.754;13.040;2022-12-24T01:23:42;13.43;;;7.20;;
20695;SDS011;10507;52.754;13.040;2022-12-24T01:26:11;14.17;;;7.70;;
20695;SDS011;10507;52.754;13.040;2022-12-24T01:28:39;16.67;;;8.30;;
20695;SDS011;10507;52.754;13.040;2022-12-24T01:31:11;13.77;;;7.37;;
20695;SDS011;10507;52.754;13.040;2022-12-24T01:33:41;15.63;;;8.67;;
20695;SDS011;10507;52.754;13.040;2022-12-24T01:36:11;14.53;;;7.37;;
20695;SDS011;10507;52.754;13.040;2022-12-24T01:38:40;15.73;;;8.20;;
20695;SDS011;10507;52.754;13.040;2022-12-24T01:41:13;14.90;;;7.10;;
20695;SDS011;10507;52.754;13.040;2022-12-24T01:46:43;14.03;;;7.93;;
20695;SDS011;10507;52.754;13.040;2022-12-24T01:49:12;17.43;;;8.50;;
20695;SDS011;10507;52.754;13.040;2022-12-24T01:51:43;15.33;;;7.93;;
20695;SDS011;10507;52.754;13.040;2022-12-24T01:54:14;18.07;;;8.47;;
20695;SDS011;10507;52.754;13.040;2022-12-24T01:56:45;14.33;;;8.23;;
20695;SDS011;10507;52.754;13.040;2022-12-24T01:59:18;14.07;;;8.00;;
20695;SDS011;10507;52.754;13.040;2022-12-24T02:01:48;17.90;;;8.60;;
20695;SDS011;10507;52.754;13.040;2022-12-24T02:04:21;17.40;;;8.93;;
20695;SDS011;10507;52.754;13.040;2022-12-24T02:06:56;17.60;;;9.37;;
20695;SDS011;10507;52.754;13.040;2022-12-24T02:09:25;17.17;;;8.47;;
20695;SDS011;10507;52.754;13.040;2022-12-24T02:11:54;19.30;;;9.57;;
20695;SDS011;10507;52.754;13.040;2022-12-24T02:14:23;19.40;;;9.67;;
20695;SDS011;10507;52.754;13.040;2022-12-24T02:16:55;17.37;;;8.97;;
20695;SDS011;10507;52.754;13.040;2022-12-24T02:22:32;18.53;;;9.17;;
20695;SDS011;10507;52.754;13.040;2022-12-24T02:25:24;17.40;;;8.80;;
20695;SDS011;10507;52.754;13.040;2022-12-24T02:28:12;17.93;;;9.63;;
20695;SDS011;10507;52.754;13.040;2022-12-24T02:33:40;21.17;;;9.70;;
20695;SDS011;10507;52.754;13.040;2022-12-24T02:36:16;18.73;;;9.60;;
20695;SDS011;10507;52.754;13.040;2022-12-24T02:38:50;19.33;;;9.90;;
20695;SDS011;10507;52.754;13.040;2022-12-24T02:41:26;18.50;;;9.00;;
20695;SDS011;10507;52.754;13.040;2022-12-24T02:44:19;20.97;;;10.47;;
20695;SDS011;10507;52.754;13.040;2022-12-24T02:46:50;18.50;;;9.97;;
20695;SDS011;10507;52.754;13.040;2022-12-24T02:49:19;20.97;;;10.67;;
20695;SDS011;10507;52.754;13.040;2022-12-24T02:51:48;18.80;;;10.30;;
20695;SDS011;10507;52.754;13.040;2022-12-24T02:54:16;18.93;;;11.03;;
20695;SDS011;10507;52.754;13.040;2022-12-24T02:56:48;21.03;;;10.37;;
20695;SDS011;10507;52.754;13.040;2022-12-24T02:59:34;19.67;;;9.90;;
20695;SDS011;10507;52.754;13.040;2022-12-24T03:02:17;21.70;;;9.93;;
20695;SDS011;10507;52.754;13.040;2022-12-24T03:04:53;19.80;;;9.63;;
20695;SDS011;10507;52.754;13.040;2022-12-24T03:07:27;19.17;;;9.40;;
20695;SDS011;10507;52.754;13.040;2022-12-24T03:10:03;18.97;;;10.43;;
20695;SDS011;10507;52.754;13.040;2022-12-24T03:12:39;21.47;;;10.57;;
20695;SDS011;10507;52.754;13.040;2022-12-24T03:15:12;19.53;;;10.53;;
20695;SDS011;10507;52.754;13.040;2022-12-24T03:17:53;20.73;;;11.03;;
20695;SDS011;10507;52.754;13.040;2022-12-24T03:20:25;19.73;;;9.70;;
20695;SDS011;10507;52.754;13.040;2022-12-24T03:23:01;21.67;;;10.43;;
20695;SDS011;10507;52.754;13.040;2022-12-24T03:25:29;18.83;;;10.60;;
20695;SDS011;10507;52.754;13.040;2022-12-24T03:28:00;21.27;;;10.83;;
20695;SDS011;10507;52.754;13.040;2022-12-24T03:30:34;23.50;;;11.20;;
20695;SDS011;10507;52.754;13.040;2022-12-24T03:33:07;20.13;;;10.67;;
20695;SDS011;10507;52.754;13.040;2022-12-24T03:35:37;19.03;;;10.40;;
20695;SDS011;10507;52.754;13.040;2022-12-24T03:38:05;21.70;;;11.27;;
20695;SDS011;10507;52.754;13.040;2022-12-24T03:40:34;17.70;;;10.43;;
20695;SDS011;10507;52.754;13.040;2022-12-24T03:43:02;22.20;;;11.60;;
20695;SDS011;10507;52.754;13.040;2022-12-24T03:45:30;20.73;;;10.60;;
20695;SDS011;10507;52.754;13.040;2022-12-24T03:47:59;20.20;;;10.70;;
20695;SDS011;10507;52.754;13.040;2022-12-24T03:50:28;22.67;;;10.53;;
20695;SDS011;10507;52.754;13.040;2022-12-24T03:52:56;22.07;;;10.60;;
20695;SDS011;10507;52.754;13.040;2022-12-24T03:55:24;20.67;;;11.10;;
20695;SDS011;10507;52.754;13.040;2022-12-24T03:57:52;25.87;;;12.30;;
20695;SDS011;10507;52.754;13.040;2022-12-24T04:00:20;21.27;;;11.53;;
20695;SDS011;10507;52.754;13.040;2022-12-24T04:02:50;23.47;;;11.53;;
20695;SDS011;10507;52.754;13.040;2022-12-24T04:05:20;24.10;;;12.87;;
20695;SDS011;10507;52.754;13.040;2022-12-24T04:07:52;24.17;;;12.30;;
20695;SDS011;10507;52.754;13.040;2022-12-24T04:10:20;23.90;;;11.97;;
20695;SDS011;10507;52.754;13.040;2022-12-24T04:12:48;22.50;;;11.90;;
20695;SDS011;10507;52.754;13.040;2022-12-24T04:15:16;23.60;;;12.63;;
20695;SDS011;10507;52.754;13.040;2022-12-24T04:17:45;24.47;;;12.87;;
20695;SDS011;10507;52.754;13.040;2022-12-24T04:20:13;22.67;;;12.17;;
20695;SDS011;10507;52.754;13.040;2022-12-24T04:22:41;25.80;;;12.70;;
20695;SDS011;10507;52.754;13.040;2022-12-24T04:25:11;22.03;;;12.97;;
20695;SDS011;10507;52.754;13.040;2022-12-24T04:27:39;24.37;;;11.93;;
20695;SDS011;10507;52.754;13.040;2022-12-24T04:30:07;24.63;;;12.67;;
20695;SDS011;10507;52.754;13.040;2022-12-24T04:32:36;23.90;;;12.77;;
20695;SDS011;10507;52.754;13.040;2022-12-24T04:35:04;26.63;;;12.90;;
20695;SDS011;10507;52.754;13.040;2022-12-24T04:37:33;22.47;;;11.97;;
20695;SDS011;10507;52.754;13.040;2022-12-24T04:40:01;24.77;;;11.37;;
20695;SDS011;10507;52.754;13.040;2022-12-24T04:42:31;23.20;;;11.97;;
20695;SDS011;10507;52.754;13.040;2022-12-24T04:44:59;23.13;;;11.43;;
20695;SDS011;10507;52.754;13.040;2022-12-24T04:47:27;20.60;;;11.27;;
20695;SDS011;10507;52.754;13.040;2022-12-24T04:49:55;23.83;;;12.10;;
20695;SDS011;10507;52.754;13.040;2022-12-24T04:52:23;23.43;;;11.33;;
20695;SDS011;10507;52.754;13.040;2022-12-24T04:54:51;19.93;;;11.20;;
20695;SDS011;10507;52.754;13.040;2022-12-24T04:57:19;21.17;;;11.70;;
20695;SDS011;10507;52.754;13.040;2022-12-24T04:59:51;21.07;;;11.50;;
20695;SDS011;10507;52.754;13.040;2022-12-24T05:02:19;24.17;;;11.70;;
20695;SDS011;10507;52.754;13.040;2022-12-24T05:04:47;18.07;;;10.77;;
20695;SDS011;10507;52.754;13.040;2022-12-24T05:07:15;19.87;;;10.70;;
20695;SDS011;10507;52.754;13.040;2022-12-24T05:09:43;20.70;;;11.10;;
20695;SDS011;10507;52.754;13.040;2022-12-24T05:12:11;21.10;;;10.90;;
20695;SDS011;10507;52.754;13.040;2022-12-24T05:14:39;21.83;;;9.97;;
20695;SDS011;10507;52.754;13.040;2022-12-24T05:17:09;20.30;;;10.20;;
20695;SDS011;10507;52.754;13.040;2022-12-24T05:19:37;17.57;;;10.43;;
20695;SDS011;10507;52.754;13.040;2022-12-24T05:22:05;18.80;;;10.40;;
20695;SDS011;10507;52.754;13.040;2022-12-24T05:24:51;21.73;;;11.13;;
20695;SDS011;10507;52.754;13.040;2022-12-24T05:27:36;17.50;;;10.37;;
20695;SDS011;10507;52.754;13.040;2022-12-24T05:30:05;18.37;;;9.57;;
20695;SDS011;10507;52.754;13.040;2022-12-24T05:32:36;17.60;;;9.63;;
20695;SDS011;10507;52.754;13.040;2022-12-24T05:35:04;18.97;;;9.87;;
20695;SDS011;10507;52.754;13.040;2022-12-24T05:37:32;20.53;;;10.83;;
20695;SDS011;10507;52.754;13.040;2022-12-24T05:40:00;18.30;;;9.50;;
20695;SDS011;10507;52.754;13.040;2022-12-24T05:42:29;19.37;;;10.00;;
20695;SDS011;10507;52.754;13.040;2022-12-24T05:44:57;16.87;;;9.50;;
20695;SDS011;10507;52.754;13.040;2022-12-24T05:47:25;17.30;;;10.50;;
20695;SDS011;10507;52.754;13.040;2022-12-24T05:49:55;21.93;;;10.77;;
20695;SDS011;10507;52.754;13.040;2022-12-24T05:52:23;18.33;;;10.53;;
20695;SDS011;10507;52.754;13.040;2022-12-24T05:54:51;22.40;;;10.47;;
20695;SDS011;10507;52.754;13.040;2022-12-24T05:57:19;16.13;;;9.23;;
20695;SDS011;10507;52.754;13.040;2022-12-24T05:59:47;17.83;;;9.67;;
20695;SDS011;10507;52.754;13.040;2022-12-24T06:02:15;22.27;;;11.17;;
20695;SDS011;10507;52.754;13.040;2022-12-24T06:04:43;20.73;;;11.17;;
20695;SDS011;10507;52.754;13.040;2022-12-24T06:07:13;21.33;;;11.13;;
20695;SDS011;10507;52.754;13.040;2022-12-24T06:09:43;23.83;;;11.73;;
20695;SDS011;10507;52.754;13.040;2022-12-24T06:12:11;18.07;;;10.50;;
20695;SDS011;10507;52.754;13.040;2022-12-24T06:14:40;19.13;;;10.57;;
20695;SDS011;10507;52.754;13.040;2022-12-24T06:17:07;20.70;;;11.23;;
20695;SDS011;10507;52.754;13.040;2022-12-24T06:19:36;20.50;;;10.47;;
20695;SDS011;10507;52.754;13.040;2022-12-24T06:22:04;20.43;;;10.97;;
20695;SDS011;10507;52.754;13.040;2022-12-24T06:24:33;21.10;;;10.57;;
20695;SDS011;10507;52.754;13.040;2022-12-24T06:27:03;21.80;;;10.70;;
20695;SDS011;10507;52.754;13.040;2022-12-24T06:29:31;16.80;;;9.50;;
20695;SDS011;10507;52.754;13.040;2022-12-24T06:31:59;18.03;;;9.87;;
20695;SDS011;10507;52.754;13.040;2022-12-24T06:34:27;18.80;;;9.63;;
20695;SDS011;10507;52.754;13.040;2022-12-24T06:36:55;18.80;;;9.47;;
20695;SDS011;10507;52.754;13.040;2022-12-24T06:39:23;17.87;;;9.70;;
20695;SDS011;10507;52.754;13.040;2022-12-24T06:41:53;23.57;;;11.37;;
20695;SDS011;10507;52.754;13.040;2022-12-24T06:44:21;19.20;;;10.17;;
20695;SDS011;10507;52.754;13.040;2022-12-24T06:46:49;19.67;;;9.23;;
20695;SDS011;10507;52.754;13.040;2022-12-24T06:49:17;16.40;;;9.47;;
20695;SDS011;10507;52.754;13.040;2022-12-24T06:51:46;16.83;;;9.13;;
20695;SDS011;10507;52.754;13.040;2022-12-24T06:54:14;15.30;;;8.87;;
20695;SDS011;10507;52.754;13.040;2022-12-24T06:56:42;15.83;;;9.00;;
20695;SDS011;10507;52.754;13.040;2022-12-24T06:59:12;14.03;;;8.40;;
20695;SDS011;10507;52.754;13.040;2022-12-24T07:01:40;18.67;;;9.07;;
20695;SDS011;10507;52.754;13.040;2022-12-24T07:04:08;17.93;;;9.50;;
20695;SDS011;10507;52.754;13.040;2022-12-24T07:06:45;19.50;;;10.23;;
20695;SDS011;10507;52.754;13.040;2022-12-24T07:09:13;18.07;;;9.50;;
20695;SDS011;10507;52.754;13.040;2022-12-24T07:11:44;17.73;;;9.63;;
20695;SDS011;10507;52.754;13.040;2022-12-24T07:14:13;16.73;;;9.13;;
20695;SDS011;10507;52.754;13.040;2022-12-24T07:16:41;14.47;;;8.87;;
20695;SDS011;10507;52.754;13.040;2022-12-24T07:19:10;12.30;;;7.50;;
20695;SDS011;10507;52.754;13.040;2022-12-24T07:21:38;17.63;;;8.80;;
20695;SDS011;10507;52.754;13.040;2022-12-24T07:24:06;15.77;;;8.57;;
20695;SDS011;10507;52.754;13.040;2022-12-24T07:26:34;15.23;;;8.97;;
20695;SDS011;10507;52.754;13.040;2022-12-24T07:29:02;13.73;;;7.87;;
20695;SDS011;10507;52.754;13.040;2022-12-24T07:31:32;15.23;;;8.77;;
20695;SDS011;10507;52.754;13.040;2022-12-24T07:34:00;14.60;;;7.67;;
20695;SDS011;10507;52.754;13.040;2022-12-24T07:36:28;14.43;;;8.37;;
20695;SDS011;10507;52.754;13.040;2022-12-24T07:38:56;13.67;;;7.40;;
20695;SDS011;10507;52.754;13.040;2022-12-24T07:41:25;12.73;;;7.70;;
20695;SDS011;10507;52.754;13.040;2022-12-24T07:43:53;13.77;;;7.33;;
20695;SDS011;10507;52.754;13.040;2022-12-24T07:46:21;13.40;;;7.60;;
20695;SDS011;10507;52.754;13.040;2022-12-24T07:48:50;13.47;;;7.37;;
20695;SDS011;10507;52.754;13.040;2022-12-24T07:51:18;14.20;;;7.40;;
20695;SDS011;10507;52.754;13.040;2022-12-24T07:53:46;16.03;;;8.33;;
20695;SDS011;10507;52.754;13.040;2022-12-24T07:56:14;14.47;;;8.07;;
20695;SDS011;10507;52.754;13.040;2022-12-24T07:58:43;12.23;;;7.37;;
20695;SDS011;10507;52.754;13.040;2022-12-24T08:01:11;11.77;;;7.57;;
20695;SDS011;10507;52.754;13.040;2022-12-24T08:03:39;16.40;;;7.37;;
20695;SDS011;10507;52.754;13.040;2022-12-24T08:06:09;11.57;;;6.23;;
20695;SDS011;10507;52.754;13.040;2022-12-24T08:08:37;14.97;;;8.03;;
20695;SDS011;10507;52.754;13.040;2022-12-24T08:11:05;12.13;;;7.10;;
20695;SDS011;10507;52.754;13.040;2022-12-24T08:13:34;12.87;;;7.13;;
20695;SDS011;10507;52.754;13.040;2022-12-24T08:16:03;11.90;;;6.50;;
20695;SDS011;10507;52.754;13.040;2022-12-24T08:18:32;10.53;;;6.20;;
20695;SDS011;10507;52.754;13.040;2022-12-24T08:21:00;10.73;;;6.07;;
20695;SDS011;10507;52.754;13.040;2022-12-24T08:23:30;12.63;;;6.80;;
20695;SDS011;10507;52.754;13.040;2022-12-24T08:25:58;11.87;;;6.80;;
20695;SDS011;10507;52.754;13.040;2022-12-24T08:28:26;10.23;;;6.30;;
20695;SDS011;10507;52.754;13.040;2022-12-24T08:30:56;10.93;;;5.77;;
20695;SDS011;10507;52.754;13.040;2022-12-24T08:33:25;9.93;;;5.93;;
20695;SDS011;10507;52.754;13.040;2022-12-24T08:35:54;9.00;;;5.40;;
20695;SDS011;10507;52.754;13.040;2022-12-24T08:38:22;10.50;;;5.60;;
20695;SDS011;10507;52.754;13.040;2022-12-24T08:40:52;8.50;;;5.43;;
20695;SDS011;10507;52.754;13.040;2022-12-24T08:43:23;8.73;;;5.53;;
20695;SDS011;10507;52.754;13.040;2022-12-24T08:45:52;9.93;;;5.40;;
20695;SDS011;10507;52.754;13.040;2022-12-24T08:48:20;8.67;;;5.20;;
20695;SDS011;10507;52.754;13.040;2022-12-24T08:50:48;8.37;;;4.73;;
20695;SDS011;10507;52.754;13.040;2022-12-24T08:53:16;8.80;;;5.00;;
20695;SDS011;10507;52.754;13.040;2022-12-24T08:55:44;7.50;;;4.57;;
20695;SDS011;10507;52.754;13.040;2022-12-24T08:58:23;7.20;;;4.17;;
20695;SDS011;10507;52.754;13.040;2022-12-24T09:00:51;8.03;;;4.80;;
20695;SDS011;10507;52.754;13.040;2022-12-24T09:03:19;6.83;;;4.43;;
20695;SDS011;10507;52.754;13.040;2022-12-24T09:05:53;7.87;;;4.27;;
20695;SDS011;10507;52.754;13.040;2022-12-24T09:08:21;7.57;;;4.50;;
20695;SDS011;10507;52.754;13.040;2022-12-24T09:10:49;7.83;;;4.53;;
20695;SDS011;10507;52.754;13.040;2022-12-24T09:13:17;6.53;;;3.77;;
20695;SDS011;10507;52.754;13.040;2022-12-24T09:15:52;6.13;;;3.90;;
20695;SDS011;10507;52.754;13.040;2022-12-24T09:18:20;6.70;;;4.53;;
20695;SDS011;10507;52.754;13.040;2022-12-24T09:20:49;6.33;;;3.70;;
20695;SDS011;10507;52.754;13.040;2022-12-24T09:23:22;6.57;;;3.60;;
20695;SDS011;10507;52.754;13.040;2022-12-24T09:25:50;5.77;;;3.93;;
20695;SDS011;10507;52.754;13.040;2022-12-24T09:28:19;6.53;;;3.83;;
20695;SDS011;10507;52.754;13.040;2022-12-24T09:30:55;6.37;;;3.90;;
20695;SDS011;10507;52.754;13.040;2022-12-24T09:33:24;7.30;;;4.10;;
20695;SDS011;10507;52.754;13.040;2022-12-24T09:35:53;5.60;;;3.93;;
20695;SDS011;10507;52.754;13.040;2022-12-24T09:38:21;6.17;;;3.70;;
20695;SDS011;10507;52.754;13.040;2022-12-24T09:40:49;6.03;;;3.70;;
20695;SDS011;10507;52.754;13.040;2022-12-24T09:43:19;5.80;;;3.90;;
20695;SDS011;10507;52.754;13.040;2022-12-24T09:45:52;7.07;;;4.17;;
20695;SDS011;10507;52.754;13.040;2022-12-24T09:48:31;5.60;;;3.83;;
20695;SDS011;10507;52.754;13.040;2022-12-24T09:51:02;5.37;;;3.23;;
20695;SDS011;10507;52.754;13.040;2022-12-24T09:53:35;7.60;;;3.70;;
20695;SDS011;10507;52.754;13.040;2022-12-24T09:56:10;5.83;;;3.50;;
20695;SDS011;10507;52.754;13.040;2022-12-24T09:58:42;6.47;;;3.57;;
20695;SDS011;10507;52.754;13.040;2022-12-24T10:01:15;6.03;;;4.03;;
20695;SDS011;10507;52.754;13.040;2022-12-24T10:03:44;7.20;;;4.03;;
20695;SDS011;10507;52.754;13.040;2022-12-24T10:06:13;5.87;;;3.73;;
20695;SDS011;10507;52.754;13.040;2022-12-24T10:08:56;5.57;;;3.63;;
20695;SDS011;10507;52.754;13.040;2022-12-24T10:11:35;4.90;;;3.40;;
20695;SDS011;10507;52.754;13.040;2022-12-24T10:14:16;8.77;;;4.77;;
20695;SDS011;10507;52.754;13.040;2022-12-24T10:16:55;6.07;;;3.93;;
20695;SDS011;10507;52.754;13.040;2022-12-24T10:19:39;5.67;;;3.63;;
20695;SDS011;10507;52.754;13.040;2022-12-24T10:22:15;6.50;;;4.17;;
20695;SDS011;10507;52.754;13.040;2022-12-24T10:24:51;7.47;;;4.70;;
20695;SDS011;10507;52.754;13.040;2022-12-24T10:27:25;6.87;;;4.33;;
20695;SDS011;10507;52.754;13.040;2022-12-24T10:30:00;7.40;;;4.10;;
20695;SDS011;10507;52.754;13.040;2022-12-24T10:32:40;7.77;;;4.47;;
20695;SDS011;10507;52.754;13.040;2022-12-24T10:35:15;7.60;;;4.63;;
20695;SDS011;10507;52.754;13.040;2022-12-24T10:37:47;7.13;;;4.00;;
20695;SDS011;10507;52.754;13.040;2022-12-24T10:40:19;6.63;;;4.03;;
20695;SDS011;10507;52.754;13.040;2022-12-24T10:42:52;7.70;;;4.17;;
20695;SDS011;10507;52.754;13.040;2022-12-24T10:45:20;6.97;;;4.70;;
20695;SDS011;10507;52.754;13.040;2022-12-24T10:47:53;6.47;;;4.10;;
20695;SDS011;10507;52.754;13.040;2022-12-24T10:50:27;6.33;;;4.20;;
20695;SDS011;10507;52.754;13.040;2022-12-24T10:52:59;6.93;;;4.77;;
20695;SDS011;10507;52.754;13.040;2022-12-24T10:55:33;7.47;;;4.80;;
20695;SDS011;10507;52.754;13.040;2022-12-24T10:58:01;8.17;;;5.00;;
20695;SDS011;10507;52.754;13.040;2022-12-24T11:00:32;11.57;;;5.30;;
20695;SDS011;10507;52.754;13.040;2022-12-24T11:03:16;8.30;;;4.73;;
20695;SDS011;10507;52.754;13.040;2022-12-24T11:05:58;7.70;;;5.10;;
20695;SDS011;10507;52.754;13.040;2022-12-24T11:08:31;8.57;;;5.30;;
20695;SDS011;10507;52.754;13.040;2022-12-24T11:11:00;8.50;;;4.53;;
20695;SDS011;10507;52.754;13.040;2022-12-24T11:13:30;7.97;;;5.20;;
20695;SDS011;10507;52.754;13.040;2022-12-24T11:16:04;8.03;;;5.10;;
20695;SDS011;10507;52.754;13.040;2022-12-24T11:18:36;9.97;;;5.47;;
20695;SDS011;10507;52.754;13.040;2022-12-24T11:21:20;7.70;;;5.20;;
20695;SDS011;10507;52.754;13.040;2022-12-24T11:23:52;8.87;;;6.43;;
20695;SDS011;10507;52.754;13.040;2022-12-24T11:26:23;9.57;;;5.87;;
20695;SDS011;10507;52.754;13.040;2022-12-24T11:29:04;12.10;;;6.43;;
20695;SDS011;10507;52.754;13.040;2022-12-24T11:31:41;10.43;;;7.00;;
20695;SDS011;10507;52.754;13.040;2022-12-24T11:34:20;12.10;;;7.63;;
20695;SDS011;10507;52.754;13.040;2022-12-24T11:36:53;13.47;;;7.37;;
20695;SDS011;10507;52.754;13.040;2022-12-24T11:39:23;12.27;;;7.50;;
20695;SDS011;10507;52.754;13.040;2022-12-24T11:41:52;13.37;;;8.50;;
20695;SDS011;10507;52.754;13.040;2022-12-24T11:44:22;13.40;;;8.70;;
20695;SDS011;10507;52.754;13.040;2022-12-24T11:46:53;14.17;;;8.60;;
20695;SDS011;10507;52.754;13.040;2022-12-24T11:49:25;14.47;;;8.40;;
20695;SDS011;10507;52.754;13.040;2022-12-24T11:55:02;15.67;;;8.60;;
20695;SDS011;10507;52.754;13.040;2022-12-24T11:57:44;14.77;;;8.63;;
20695;SDS011;10507;52.754;13.040;2022-12-24T12:00:18;14.07;;;8.33;;
20695;SDS011;10507;52.754;13.040;2022-12-24T12:02:47;12.80;;;8.47;;
20695;SDS011;10507;52.754;13.040;2022-12-24T12:08:07;13.53;;;7.97;;
20695;SDS011;10507;52.754;13.040;2022-12-24T12:10:40;13.73;;;8.20;;
20695;SDS011;10507;52.754;13.040;2022-12-24T12:13:10;16.77;;;9.23;;
20695;SDS011;10507;52.754;13.040;2022-12-24T12:15:43;14.37;;;8.63;;
20695;SDS011;10507;52.754;13.040;2022-12-24T12:18:15;12.50;;;7.70;;
20695;SDS011;10507;52.754;13.040;2022-12-24T12:20:49;14.20;;;8.37;;
20695;SDS011;10507;52.754;13.040;2022-12-24T12:23:23;12.40;;;8.30;;
20695;SDS011;10507;52.754;13.040;2022-12-24T12:25:56;14.07;;;8.03;;
20695;SDS011;10507;52.754;13.040;2022-12-24T12:28:27;13.53;;;8.03;;
20695;SDS011;10507;52.754;13.040;2022-12-24T12:31:02;13.30;;;8.60;;
20695;SDS011;10507;52.754;13.040;2022-12-24T12:33:42;16.37;;;9.23;;
20695;SDS011;10507;52.754;13.040;2022-12-24T12:36:16;16.70;;;8.70;;
20695;SDS011;10507;52.754;13.040;2022-12-24T12:38:47;15.47;;;9.13;;
20695;SDS011;10507;52.754;13.040;2022-12-24T12:41:24;15.97;;;9.47;;
20695;SDS011;10507;52.754;13.040;2022-12-24T12:47:13;15.97;;;9.20;;
20695;SDS011;10507;52.754;13.040;2022-12-24T12:50:01;16.97;;;8.40;;
20695;SDS011;10507;52.754;13.040;2022-12-24T12:52:48;15.30;;;8.83;;
20695;SDS011;10507;52.754;13.040;2022-12-24T12:55:31;14.70;;;8.73;;
20695;SDS011;10507;52.754;13.040;2022-12-24T12:58:11;16.80;;;9.23;;
20695;SDS011;10507;52.754;13.040;2022-12-24T13:00:44;13.73;;;8.60;;
20695;SDS011;10507;52.754;13.040;2022-12-24T13:03:30;16.50;;;9.00;;
20695;SDS011;10507;52.754;13.040;2022-12-24T13:06:30;15.30;;;9.20;;
20695;SDS011;10507;52.754;13.040;2022-12-24T13:09:31;13.37;;;9.13;;
20695;SDS011;10507;52.754;13.040;2022-12-24T13:12:22;15.77;;;8.90;;
20695;SDS011;10507;52.754;13.040;2022-12-24T13:15:08;14.80;;;10.13;;
20695;SDS011;10507;52.754;13.040;2022-12-24T13:18:08;16.40;;;9.30;;
20695;SDS011;10507;52.754;13.040;2022-12-24T13:20:49;16.57;;;9.10;;
20695;SDS011;10507;52.754;13.040;2022-12-24T13:23:19;14.10;;;8.57;;
20695;SDS011;10507;52.754;13.040;2022-12-24T13:25:50;14.37;;;9.17;;
20695;SDS011;10507;52.754;13.040;2022-12-24T13:28:33;16.50;;;9.90;;
20695;SDS011;10507;52.754;13.040;2022-12-24T13:33:59;15.47;;;9.00;;
20695;SDS011;10507;52.754;13.040;2022-12-24T13:45:41;15.27;;;8.63;;
20695;SDS011;10507;52.754;13.040;2022-12-24T13:48:21;13.73;;;8.90;;
20695;SDS011;10507;52.754;13.040;2022-12-24T13:50:57;14.10;;;9.20;;
20695;SDS011;10507;52.754;13.040;2022-12-24T13:53:27;17.53;;;9.80;;
20695;SDS011;10507;52.754;13.040;2022-12-24T13:56:01;15.07;;;9.53;;
20695;SDS011;10507;52.754;13.040;2022-12-24T13:58:35;14.30;;;8.37;;
20695;SDS011;10507;52.754;13.040;2022-12-24T14:01:07;15.83;;;9.40;;
20695;SDS011;10507;52.754;13.040;2022-12-24T14:03:40;14.03;;;8.17;;
20695;SDS011;10507;52.754;13.040;2022-12-24T14:06:10;16.37;;;8.83;;
20695;SDS011;10507;52.754;13.040;2022-12-24T14:08:47;15.43;;;9.07;;
20695;SDS011;10507;52.754;13.040;2022-12-24T14:11:18;16.40;;;8.47;;
20695;SDS011;10507;52.754;13.040;2022-12-24T14:16:48;15.80;;;9.80;;
20695;SDS011;10507;52.754;13.040;2022-12-24T14:19:19;14.23;;;9.10;;
20695;SDS011;10507;52.754;13.040;2022-12-24T14:21:51;15.03;;;7.83;;
20695;SDS011;10507;52.754;13.040;2022-12-24T14:24:24;16.93;;;8.40;;
20695;SDS011;10507;52.754;13.040;2022-12-24T14:26:56;16.07;;;9.07;;
20695;SDS011;10507;52.754;13.040;2022-12-24T14:29:27;16.50;;;9.10;;
20695;SDS011;10507;52.754;13.040;2022-12-24T14:32:00;13.87;;;8.30;;
20695;SDS011;10507;52.754;13.040;2022-12-24T14:34:29;17.17;;;9.50;;
20695;SDS011;10507;52.754;13.040;2022-12-24T14:36:58;13.00;;;8.20;;
20695;SDS011;10507;52.754;13.040;2022-12-24T14:39:31;14.97;;;8.80;;
20695;SDS011;10507;52.754;13.040;2022-12-24T14:42:06;13.40;;;9.27;;
20695;SDS011;10507;52.754;13.040;2022-12-24T14:44:45;13.20;;;8.60;;
20695;SDS011;10507;52.754;13.040;2022-12-24T14:47:27;14.00;;;9.07;;
20695;SDS011;10507;52.754;13.040;2022-12-24T14:50:09;14.27;;;9.13;;
20695;SDS011;10507;52.754;13.040;2022-12-24T14:52:59;15.57;;;9.93;;
20695;SDS011;10507;52.754;13.040;2022-12-24T14:55:45;16.53;;;10.97;;
20695;SDS011;10507;52.754;13.040;2022-12-24T14:58:24;18.37;;;11.47;;
20695;SDS011;10507;52.754;13.040;2022-12-24T15:00:55;19.80;;;10.47;;
20695;SDS011;10507;52.754;13.040;2022-12-24T15:03:27;15.80;;;10.30;;
20695;SDS011;10507;52.754;13.040;2022-12-24T15:05:57;14.13;;;9.37;;
20695;SDS011;10507;52.754;13.040;2022-12-24T15:08:31;17.80;;;10.73;;
20695;SDS011;10507;52.754;13.040;2022-12-24T15:11:04;21.50;;;11.90;;
20695;SDS011;10507;52.754;13.040;2022-12-24T15:13:34;16.97;;;10.43;;
20695;SDS011;10507;52.754;13.040;2022-12-24T15:16:06;16.43;;;9.67;;
20695;SDS011;10507;52.754;13.040;2022-12-24T15:18:43;13.13;;;8.57;;
20695;SDS011;10507;52.754;13.040;2022-12-24T15:21:16;18.37;;;8.23;;